sensor_id;sensor_type;location;lat;lon;timestamp;P1;durP1;ratioP1;P2;durP2;ratioP2
20846;SDS011;10584;50.854;12.902;2023-02-24T00:00:00;57.10;;;23.40;;
20846;SDS011;10584;50.854;12.902;2023-02-24T00:05:42;57.00;;;23.50;;
20846;SDS011;10584;50.854;12.902;2023-02-24T00:11:13;45.77;;;20.03;;
20846;SDS011;10584;50.854;12.902;2023-02-24T00:16:37;42.37;;;18.93;;
20846;SDS011;10584;50.854;12.902;2023-02-24T00:22:02;46.97;;;19.67;;
20846;SDS011;10584;50.854;12.902;2023-02-24T00:27:27;37.50;;;15.77;;
20846;SDS011;10584;50.854;12.902;2023-02-24T00:32:49;44.20;;;18.53;;
20846;SDS011;10584;50.854;12.902;2023-02-24T00:38:10;40.37;;;17.33;;
20846;SDS011;10584;50.854;12.902;2023-02-24T00:43:33;39.57;;;17.87;;
20846;SDS011;10584;50.854;12.902;2023-02-24T00:48:56;40.03;;;15.80;;
20846;SDS011;10584;50.854;12.902;2023-02-24T00:54:18;37.40;;;16.17;;
20846;SDS011;10584;50.854;12.902;2023-02-24T00:59:40;40.27;;;16.57;;
20846;SDS011;10584;50.854;12.902;2023-02-24T01:05:07;42.93;;;17.43;;
20846;SDS011;10584;50.854;12.902;2023-02-24T01:10:29;40.43;;;15.57;;
20846;SDS011;10584;50.854;12.902;2023-02-24T01:16:02;38.43;;;15.83;;
20846;SDS011;10584;50.854;12.902;2023-02-24T01:21:25;34.77;;;14.77;;
20846;SDS011;10584;50.854;12.902;2023-02-24T01:26:46;39.47;;;15.00;;
20846;SDS011;10584;50.854;12.902;2023-02-24T01:32:12;40.97;;;15.47;;
20846;SDS011;10584;50.854;12.902;2023-02-24T01:37:37;43.53;;;15.90;;
20846;SDS011;10584;50.854;12.902;2023-02-24T01:43:00;40.00;;;15.83;;
20846;SDS011;10584;50.854;12.902;2023-02-24T01:48:27;41.80;;;17.03;;
20846;SDS011;10584;50.854;12.902;2023-02-24T01:53:49;40.07;;;15.90;;
20846;SDS011;10584;50.854;12.902;2023-02-24T01:59:11;44.70;;;16.67;;
20846;SDS011;10584;50.854;12.902;2023-02-24T02:10:09;43.20;;;17.27;;
20846;SDS011;10584;50.854;12.902;2023-02-24T02:15:34;46.37;;;17.43;;
20846;SDS011;10584;50.854;12.902;2023-02-24T02:21:18;51.50;;;19.33;;
20846;SDS011;10584;50.854;12.902;2023-02-24T02:38:50;37.07;;;14.93;;
20846;SDS011;10584;50.854;12.902;2023-02-24T02:44:16;39.47;;;15.93;;
20846;SDS011;10584;50.854;12.902;2023-02-24T02:49:50;39.53;;;15.87;;
20846;SDS011;10584;50.854;12.902;2023-02-24T02:55:30;39.97;;;15.73;;
20846;SDS011;10584;50.854;12.902;2023-02-24T03:01:01;44.20;;;17.40;;
20846;SDS011;10584;50.854;12.902;2023-02-24T03:06:27;41.70;;;16.50;;
20846;SDS011;10584;50.854;12.902;2023-02-24T03:12:03;47.63;;;17.37;;
20846;SDS011;10584;50.854;12.902;2023-02-24T03:17:29;47.70;;;17.90;;
20846;SDS011;10584;50.854;12.902;2023-02-24T03:23:06;42.93;;;17.40;;
20846;SDS011;10584;50.854;12.902;2023-02-24T03:28:37;29.10;;;11.30;;
20846;SDS011;10584;50.854;12.902;2023-02-24T03:34:13;28.53;;;11.10;;
20846;SDS011;10584;50.854;12.902;2023-02-24T03:40:03;24.97;;;10.00;;
20846;SDS011;10584;50.854;12.902;2023-02-24T03:45:35;22.03;;;8.60;;
20846;SDS011;10584;50.854;12.902;2023-02-24T03:50:59;22.53;;;8.03;;
20846;SDS011;10584;50.854;12.902;2023-02-24T04:02:17;27.07;;;7.93;;
20846;SDS011;10584;50.854;12.902;2023-02-24T04:07:51;23.60;;;8.20;;
20846;SDS011;10584;50.854;12.902;2023-02-24T04:13:23;27.73;;;8.43;;
20846;SDS011;10584;50.854;12.902;2023-02-24T04:19:08;29.27;;;7.70;;
20846;SDS011;10584;50.854;12.902;2023-02-24T04:24:40;25.17;;;7.83;;
20846;SDS011;10584;50.854;12.902;2023-02-24T04:30:03;29.50;;;7.43;;
20846;SDS011;10584;50.854;12.902;2023-02-24T04:35:26;29.60;;;8.17;;
20846;SDS011;10584;50.854;12.902;2023-02-24T04:40:49;27.40;;;8.47;;
20846;SDS011;10584;50.854;12.902;2023-02-24T04:46:10;28.67;;;9.10;;
20846;SDS011;10584;50.854;12.902;2023-02-24T04:51:32;25.80;;;9.10;;
20846;SDS011;10584;50.854;12.902;2023-02-24T04:56:55;25.60;;;8.57;;
20846;SDS011;10584;50.854;12.902;2023-02-24T05:02:18;24.13;;;10.10;;
20846;SDS011;10584;50.854;12.902;2023-02-24T05:07:41;31.80;;;10.13;;
20846;SDS011;10584;50.854;12.902;2023-02-24T05:13:07;31.07;;;9.93;;
20846;SDS011;10584;50.854;12.902;2023-02-24T05:18:31;23.23;;;8.77;;
20846;SDS011;10584;50.854;12.902;2023-02-24T05:23:56;19.07;;;6.27;;
20846;SDS011;10584;50.854;12.902;2023-02-24T05:29:19;18.73;;;5.87;;
20846;SDS011;10584;50.854;12.902;2023-02-24T05:34:40;16.37;;;5.60;;
20846;SDS011;10584;50.854;12.902;2023-02-24T05:40:03;13.27;;;4.53;;
20846;SDS011;10584;50.854;12.902;2023-02-24T05:45:32;12.13;;;4.83;;
20846;SDS011;10584;50.854;12.902;2023-02-24T05:50:54;11.77;;;4.63;;
20846;SDS011;10584;50.854;12.902;2023-02-24T05:56:16;19.30;;;4.67;;
20846;SDS011;10584;50.854;12.902;2023-02-24T06:01:39;14.53;;;4.37;;
20846;SDS011;10584;50.854;12.902;2023-02-24T06:07:01;12.27;;;4.33;;
20846;SDS011;10584;50.854;12.902;2023-02-24T06:12:28;10.47;;;3.80;;
20846;SDS011;10584;50.854;12.902;2023-02-24T06:17:51;14.50;;;3.50;;
20846;SDS011;10584;50.854;12.902;2023-02-24T06:23:16;10.70;;;3.40;;
20846;SDS011;10584;50.854;12.902;2023-02-24T06:28:38;11.00;;;3.73;;
20846;SDS011;10584;50.854;12.902;2023-02-24T06:34:02;9.83;;;4.13;;
20846;SDS011;10584;50.854;12.902;2023-02-24T06:39:23;10.77;;;4.10;;
20846;SDS011;10584;50.854;12.902;2023-02-24T06:44:45;14.90;;;5.43;;
20846;SDS011;10584;50.854;12.902;2023-02-24T06:50:08;19.73;;;5.07;;
20846;SDS011;10584;50.854;12.902;2023-02-24T06:55:30;14.83;;;4.83;;
20846;SDS011;10584;50.854;12.902;2023-02-24T07:00:55;11.27;;;5.20;;
20846;SDS011;10584;50.854;12.902;2023-02-24T07:06:17;17.17;;;4.43;;
20846;SDS011;10584;50.854;12.902;2023-02-24T07:11:44;11.93;;;4.40;;
20846;SDS011;10584;50.854;12.902;2023-02-24T07:17:08;7.87;;;3.67;;
20846;SDS011;10584;50.854;12.902;2023-02-24T07:22:29;11.43;;;3.17;;
20846;SDS011;10584;50.854;12.902;2023-02-24T07:27:54;8.33;;;3.40;;
20846;SDS011;10584;50.854;12.902;2023-02-24T07:33:16;7.80;;;3.20;;
20846;SDS011;10584;50.854;12.902;2023-02-24T07:38:42;9.27;;;3.93;;
20846;SDS011;10584;50.854;12.902;2023-02-24T07:44:04;11.33;;;4.10;;
20846;SDS011;10584;50.854;12.902;2023-02-24T07:49:29;11.83;;;4.73;;
20846;SDS011;10584;50.854;12.902;2023-02-24T07:54:51;16.77;;;5.30;;
20846;SDS011;10584;50.854;12.902;2023-02-24T08:00:15;21.13;;;5.50;;
20846;SDS011;10584;50.854;12.902;2023-02-24T08:05:39;22.27;;;5.50;;
20846;SDS011;10584;50.854;12.902;2023-02-24T08:11:04;17.43;;;5.67;;
20846;SDS011;10584;50.854;12.902;2023-02-24T08:16:29;20.70;;;6.80;;
20846;SDS011;10584;50.854;12.902;2023-02-24T08:21:59;26.90;;;7.33;;
20846;SDS011;10584;50.854;12.902;2023-02-24T08:27:39;18.60;;;6.00;;
20846;SDS011;10584;50.854;12.902;2023-02-24T08:33:01;23.33;;;7.40;;
20846;SDS011;10584;50.854;12.902;2023-02-24T08:38:22;21.27;;;6.33;;
20846;SDS011;10584;50.854;12.902;2023-02-24T08:43:47;18.40;;;5.70;;
20846;SDS011;10584;50.854;12.902;2023-02-24T08:49:08;18.10;;;5.37;;
20846;SDS011;10584;50.854;12.902;2023-02-24T08:54:30;16.33;;;4.90;;
20846;SDS011;10584;50.854;12.902;2023-02-24T08:59:53;15.20;;;4.40;;
20846;SDS011;10584;50.854;12.902;2023-02-24T09:05:17;13.47;;;4.10;;
20846;SDS011;10584;50.854;12.902;2023-02-24T09:10:39;15.17;;;4.77;;
20846;SDS011;10584;50.854;12.902;2023-02-24T09:16:05;18.47;;;6.40;;
20846;SDS011;10584;50.854;12.902;2023-02-24T09:21:36;24.83;;;8.03;;
20846;SDS011;10584;50.854;12.902;2023-02-24T09:27:32;25.03;;;8.90;;
20846;SDS011;10584;50.854;12.902;2023-02-24T09:32:54;24.57;;;8.97;;
20846;SDS011;10584;50.854;12.902;2023-02-24T09:38:21;22.80;;;8.80;;
20846;SDS011;10584;50.854;12.902;2023-02-24T09:49:32;19.97;;;5.93;;
20846;SDS011;10584;50.854;12.902;2023-02-24T09:55:18;12.33;;;5.43;;
20846;SDS011;10584;50.854;12.902;2023-02-24T10:06:43;19.07;;;6.57;;
20846;SDS011;10584;50.854;12.902;2023-02-24T10:17:41;21.23;;;7.53;;
20846;SDS011;10584;50.854;12.902;2023-02-24T10:23:21;22.17;;;8.13;;
20846;SDS011;10584;50.854;12.902;2023-02-24T10:29:01;20.43;;;8.33;;
20846;SDS011;10584;50.854;12.902;2023-02-24T10:34:42;25.97;;;8.27;;
20846;SDS011;10584;50.854;12.902;2023-02-24T10:40:04;22.97;;;7.23;;
20846;SDS011;10584;50.854;12.902;2023-02-24T10:45:29;20.47;;;7.83;;
20846;SDS011;10584;50.854;12.902;2023-02-24T10:50:54;21.60;;;7.40;;
20846;SDS011;10584;50.854;12.902;2023-02-24T10:56:27;19.20;;;6.33;;
20846;SDS011;10584;50.854;12.902;2023-02-24T11:02:14;17.93;;;6.50;;
20846;SDS011;10584;50.854;12.902;2023-02-24T11:08:15;16.47;;;6.53;;
20846;SDS011;10584;50.854;12.902;2023-02-24T11:14:03;15.57;;;5.97;;
20846;SDS011;10584;50.854;12.902;2023-02-24T11:19:57;17.37;;;5.63;;
20846;SDS011;10584;50.854;12.902;2023-02-24T11:25:41;13.60;;;5.33;;
20846;SDS011;10584;50.854;12.902;2023-02-24T11:42:30;12.83;;;5.80;;
20846;SDS011;10584;50.854;12.902;2023-02-24T11:48:09;10.33;;;5.20;;
20846;SDS011;10584;50.854;12.902;2023-02-24T12:10:42;15.10;;;7.17;;
20846;SDS011;10584;50.854;12.902;2023-02-24T12:16:23;20.17;;;7.87;;
20846;SDS011;10584;50.854;12.902;2023-02-24T12:21:50;13.37;;;6.83;;
20846;SDS011;10584;50.854;12.902;2023-02-24T12:38:56;15.90;;;7.17;;
20846;SDS011;10584;50.854;12.902;2023-02-24T12:44:37;14.73;;;6.47;;
20846;SDS011;10584;50.854;12.902;2023-02-24T12:50:26;13.10;;;5.43;;
20846;SDS011;10584;50.854;12.902;2023-02-24T12:56:01;14.67;;;5.83;;
20846;SDS011;10584;50.854;12.902;2023-02-24T13:13:50;12.37;;;5.27;;
20846;SDS011;10584;50.854;12.902;2023-02-24T13:19:20;15.40;;;5.50;;
20846;SDS011;10584;50.854;12.902;2023-02-24T13:30:27;12.83;;;5.63;;
20846;SDS011;10584;50.854;12.902;2023-02-24T13:41:41;12.27;;;5.57;;
20846;SDS011;10584;50.854;12.902;2023-02-24T14:04:05;12.87;;;5.23;;
20846;SDS011;10584;50.854;12.902;2023-02-24T14:09:42;13.87;;;5.30;;
20846;SDS011;10584;50.854;12.902;2023-02-24T14:15:21;12.47;;;5.47;;
20846;SDS011;10584;50.854;12.902;2023-02-24T14:20:45;12.23;;;5.63;;
20846;SDS011;10584;50.854;12.902;2023-02-24T14:26:07;12.57;;;5.60;;
20846;SDS011;10584;50.854;12.902;2023-02-24T14:31:33;12.60;;;5.40;;
20846;SDS011;10584;50.854;12.902;2023-02-24T14:36:56;15.43;;;5.47;;
20846;SDS011;10584;50.854;12.902;2023-02-24T14:42:21;16.47;;;5.60;;
20846;SDS011;10584;50.854;12.902;2023-02-24T14:47:42;14.53;;;5.30;;
20846;SDS011;10584;50.854;12.902;2023-02-24T14:53:05;13.07;;;5.83;;
20846;SDS011;10584;50.854;12.902;2023-02-24T15:04:18;18.47;;;6.07;;
20846;SDS011;10584;50.854;12.902;2023-02-24T15:09:44;18.00;;;6.17;;
20846;SDS011;10584;50.854;12.902;2023-02-24T15:20:42;10.57;;;5.10;;
20846;SDS011;10584;50.854;12.902;2023-02-24T15:26:05;14.73;;;6.20;;
20846;SDS011;10584;50.854;12.902;2023-02-24T15:31:28;12.33;;;5.70;;
20846;SDS011;10584;50.854;12.902;2023-02-24T15:36:54;13.80;;;5.73;;
20846;SDS011;10584;50.854;12.902;2023-02-24T15:53:03;16.77;;;6.73;;
20846;SDS011;10584;50.854;12.902;2023-02-24T15:58:28;16.67;;;6.60;;
20846;SDS011;10584;50.854;12.902;2023-02-24T16:03:50;13.60;;;6.03;;
20846;SDS011;10584;50.854;12.902;2023-02-24T16:09:12;14.70;;;6.33;;
20846;SDS011;10584;50.854;12.902;2023-02-24T16:14:35;14.60;;;5.80;;
20846;SDS011;10584;50.854;12.902;2023-02-24T16:19:59;15.03;;;5.67;;
20846;SDS011;10584;50.854;12.902;2023-02-24T16:25:21;14.23;;;6.20;;
20846;SDS011;10584;50.854;12.902;2023-02-24T16:30:44;13.57;;;5.93;;
20846;SDS011;10584;50.854;12.902;2023-02-24T16:36:09;14.03;;;5.97;;
20846;SDS011;10584;50.854;12.902;2023-02-24T16:41:33;15.77;;;6.50;;
20846;SDS011;10584;50.854;12.902;2023-02-24T16:46:55;12.77;;;5.60;;
20846;SDS011;10584;50.854;12.902;2023-02-24T16:52:17;14.33;;;5.53;;
20846;SDS011;10584;50.854;12.902;2023-02-24T16:57:40;17.23;;;6.47;;
20846;SDS011;10584;50.854;12.902;2023-02-24T17:03:03;13.77;;;6.60;;
20846;SDS011;10584;50.854;12.902;2023-02-24T17:08:34;18.33;;;6.43;;
20846;SDS011;10584;50.854;12.902;2023-02-24T17:13:55;13.83;;;6.50;;
20846;SDS011;10584;50.854;12.902;2023-02-24T17:19:17;16.30;;;6.33;;
20846;SDS011;10584;50.854;12.902;2023-02-24T17:24:39;15.37;;;5.73;;
20846;SDS011;10584;50.854;12.902;2023-02-24T17:30:01;11.70;;;6.03;;
20846;SDS011;10584;50.854;12.902;2023-02-24T17:35:23;14.70;;;6.10;;
20846;SDS011;10584;50.854;12.902;2023-02-24T17:40:46;12.10;;;5.40;;
20846;SDS011;10584;50.854;12.902;2023-02-24T17:46:08;12.30;;;5.37;;
20846;SDS011;10584;50.854;12.902;2023-02-24T17:51:30;15.30;;;5.93;;
20846;SDS011;10584;50.854;12.902;2023-02-24T17:56:52;11.90;;;5.50;;
20846;SDS011;10584;50.854;12.902;2023-02-24T18:02:14;11.83;;;4.40;;
20846;SDS011;10584;50.854;12.902;2023-02-24T18:07:37;9.00;;;4.93;;
20846;SDS011;10584;50.854;12.902;2023-02-24T18:12:58;7.93;;;4.00;;
20846;SDS011;10584;50.854;12.902;2023-02-24T18:18:20;10.50;;;4.13;;
20846;SDS011;10584;50.854;12.902;2023-02-24T18:23:42;8.50;;;3.70;;
20846;SDS011;10584;50.854;12.902;2023-02-24T18:29:04;6.40;;;3.50;;
20846;SDS011;10584;50.854;12.902;2023-02-24T18:34:26;7.57;;;3.47;;
20846;SDS011;10584;50.854;12.902;2023-02-24T18:39:47;8.00;;;3.60;;
20846;SDS011;10584;50.854;12.902;2023-02-24T18:45:12;8.83;;;3.80;;
20846;SDS011;10584;50.854;12.902;2023-02-24T18:50:33;7.67;;;3.30;;
20846;SDS011;10584;50.854;12.902;2023-02-24T18:56:02;7.23;;;3.43;;
20846;SDS011;10584;50.854;12.902;2023-02-24T19:01:33;6.13;;;3.17;;
20846;SDS011;10584;50.854;12.902;2023-02-24T19:06:56;5.90;;;3.20;;
20846;SDS011;10584;50.854;12.902;2023-02-24T19:12:18;9.80;;;4.53;;
20846;SDS011;10584;50.854;12.902;2023-02-24T19:17:40;10.97;;;4.53;;
20846;SDS011;10584;50.854;12.902;2023-02-24T19:23:02;10.33;;;5.10;;
20846;SDS011;10584;50.854;12.902;2023-02-24T19:28:25;9.07;;;4.40;;
20846;SDS011;10584;50.854;12.902;2023-02-24T19:33:51;10.57;;;4.90;;
20846;SDS011;10584;50.854;12.902;2023-02-24T19:39:14;11.80;;;5.43;;
20846;SDS011;10584;50.854;12.902;2023-02-24T19:44:37;14.07;;;5.60;;
20846;SDS011;10584;50.854;12.902;2023-02-24T19:49:58;10.50;;;5.20;;
20846;SDS011;10584;50.854;12.902;2023-02-24T19:55:20;12.37;;;5.43;;
20846;SDS011;10584;50.854;12.902;2023-02-24T20:00:41;14.97;;;5.63;;
20846;SDS011;10584;50.854;12.902;2023-02-24T20:06:03;13.40;;;5.90;;
20846;SDS011;10584;50.854;12.902;2023-02-24T20:11:26;11.83;;;6.27;;
20846;SDS011;10584;50.854;12.902;2023-02-24T20:16:52;13.17;;;5.40;;
20846;SDS011;10584;50.854;12.902;2023-02-24T20:22:13;13.10;;;6.20;;
20846;SDS011;10584;50.854;12.902;2023-02-24T20:27:35;11.83;;;6.03;;
20846;SDS011;10584;50.854;12.902;2023-02-24T20:32:57;14.20;;;6.60;;
20846;SDS011;10584;50.854;12.902;2023-02-24T20:38:19;13.03;;;6.80;;
20846;SDS011;10584;50.854;12.902;2023-02-24T20:43:40;15.40;;;6.80;;
20846;SDS011;10584;50.854;12.902;2023-02-24T20:49:03;13.57;;;6.40;;
20846;SDS011;10584;50.854;12.902;2023-02-24T20:54:26;13.53;;;6.20;;
20846;SDS011;10584;50.854;12.902;2023-02-24T20:59:48;17.77;;;7.50;;
20846;SDS011;10584;50.854;12.902;2023-02-24T21:05:23;10.63;;;5.73;;
20846;SDS011;10584;50.854;12.902;2023-02-24T21:10:45;13.57;;;6.13;;
20846;SDS011;10584;50.854;12.902;2023-02-24T21:16:07;11.43;;;5.67;;
20846;SDS011;10584;50.854;12.902;2023-02-24T21:21:33;13.17;;;6.17;;
20846;SDS011;10584;50.854;12.902;2023-02-24T21:26:55;15.37;;;6.63;;
20846;SDS011;10584;50.854;12.902;2023-02-24T21:32:17;16.67;;;6.43;;
20846;SDS011;10584;50.854;12.902;2023-02-24T21:37:39;13.77;;;6.03;;
20846;SDS011;10584;50.854;12.902;2023-02-24T21:43:01;12.83;;;5.87;;
20846;SDS011;10584;50.854;12.902;2023-02-24T21:48:23;14.67;;;5.60;;
20846;SDS011;10584;50.854;12.902;2023-02-24T21:53:45;14.70;;;7.30;;
20846;SDS011;10584;50.854;12.902;2023-02-24T21:59:08;15.27;;;6.83;;
20846;SDS011;10584;50.854;12.902;2023-02-24T22:04:30;16.03;;;6.80;;
20846;SDS011;10584;50.854;12.902;2023-02-24T22:09:52;14.37;;;7.10;;
20846;SDS011;10584;50.854;12.902;2023-02-24T22:15:14;14.43;;;6.33;;
20846;SDS011;10584;50.854;12.902;2023-02-24T22:20:36;13.33;;;7.00;;
20846;SDS011;10584;50.854;12.902;2023-02-24T22:26:01;16.73;;;7.20;;
20846;SDS011;10584;50.854;12.902;2023-02-24T22:31:27;18.97;;;7.03;;
20846;SDS011;10584;50.854;12.902;2023-02-24T22:36:51;17.40;;;7.43;;
20846;SDS011;10584;50.854;12.902;2023-02-24T22:42:12;15.27;;;7.27;;
20846;SDS011;10584;50.854;12.902;2023-02-24T22:47:34;15.90;;;6.77;;
20846;SDS011;10584;50.854;12.902;2023-02-24T22:52:56;13.37;;;6.27;;
20846;SDS011;10584;50.854;12.902;2023-02-24T22:58:18;13.60;;;6.53;;
20846;SDS011;10584;50.854;12.902;2023-02-24T23:03:41;18.73;;;5.73;;
20846;SDS011;10584;50.854;12.902;2023-02-24T23:09:05;12.33;;;6.00;;
20846;SDS011;10584;50.854;12.902;2023-02-24T23:14:28;13.33;;;5.97;;
20846;SDS011;10584;50.854;12.902;2023-02-24T23:19:49;12.57;;;5.97;;
20846;SDS011;10584;50.854;12.902;2023-02-24T23:25:11;18.00;;;7.10;;
20846;SDS011;10584;50.854;12.902;2023-02-24T23:30:38;13.23;;;6.50;;
20846;SDS011;10584;50.854;12.902;2023-02-24T23:36:02;15.53;;;7.17;;
20846;SDS011;10584;50.854;12.902;2023-02-24T23:41:27;13.03;;;6.23;;
20846;SDS011;10584;50.854;12.902;2023-02-24T23:46:49;17.60;;;7.43;;
20846;SDS011;10584;50.854;12.902;2023-02-24T23:52:11;16.20;;;6.90;;
20846;SDS011;10584;50.854;12.902;2023-02-24T23:57:35;22.10;;;7.27;;
